This is the latest recevied weather packets stored in our database for station/object YT1XN-8. If no packets are shown the sender has not sent any weather packets the latest 1 day(s).
| Time | Temp. | Humidity | Pressure | Rain* | Wind** | Luminosity | Snow |
|---|---|---|---|---|---|---|---|
| 1777965040 | 17.78° C | 61% | 1015.9 hPa | 0 mm | 1.34 m/s, 240° | - | - |
| 1777964439 | 17.22° C | 61% | 1016.1 hPa | 0 mm | 1.34 m/s, 253° | - | - |
| 1777963842 | 16.67° C | 65% | 1016.1 hPa | 0 mm | 0.89 m/s, 226° | - | - |
| 1777963779 | 16.67° C | 65% | 1016 hPa | 0 mm | 0 m/s | - | - |
| 1777963240 | 16.67° C | 64% | 1016 hPa | 0 mm | 0 m/s | - | - |
| 1777963119 | 16.67° C | 63% | 1016 hPa | 0 mm | 0.89 m/s, 129° | - | - |
| 1777962640 | 15.56° C | 65% | 1016 hPa | 0 mm | 0.89 m/s, 136° | - | - |
| 1777962459 | 15.56° C | 66% | 1015.9 hPa | 0 mm | 0.89 m/s, 157° | - | - |
| 1777962040 | 14.44° C | 67% | 1015.9 hPa | 0 mm | 0.45 m/s, 105° | - | - |
| 1777961799 | 13.89° C | 70% | 1016 hPa | 0 mm | 1.34 m/s, 138° | - | - |
| 1777961440 | 13.33° C | 72% | 1015.9 hPa | 0 mm | 0 m/s | - | - |
| 1777961139 | 13.33° C | 71% | 1015.9 hPa | 0 mm | 0 m/s | - | - |
| 1777960840 | 12.78° C | 71% | 1015.9 hPa | 0 mm | 0 m/s | - | - |
| 1777960479 | 12.78° C | 72% | 1015.9 hPa | 0 mm | 0.45 m/s, 236° | - | - |
| 1777960242 | 12.78° C | 72% | 1016 hPa | 0 mm | 0.45 m/s, 250° | - | - |
| 1777959819 | 12.78° C | 72% | 1016 hPa | 0 mm | 0.45 m/s, 253° | - | - |
| 1777959640 | 12.78° C | 72% | 1016 hPa | 0 mm | 1.34 m/s, 259° | - | - |
| 1777959159 | 12.78° C | 70% | 1016 hPa | 0 mm | 0.89 m/s, 236° | - | - |
| 1777959040 | 12.78° C | 70% | 1015.9 hPa | 0 mm | 0.89 m/s, 257° | - | - |
| 1777958499 | 12.22° C | 67% | 1015.7 hPa | 0 mm | 0 m/s | - | - |
| 1777958441 | 12.22° C | 67% | 1015.6 hPa | 0 mm | 0.45 m/s, 156° | - | - |
| 1777957839 | 12.78° C | 67% | 1015.6 hPa | 0 mm | 0.45 m/s, 267° | - | - |
| 1777957241 | 14.44° C | 63% | 1015.6 hPa | 0 mm | 0.89 m/s, 250° | - | - |
| 1777957179 | 14.44° C | 63% | 1015.6 hPa | 0 mm | 1.34 m/s, 249° | - | - |
| 1777956640 | 15° C | 58% | 1015.5 hPa | 0 mm | 0.45 m/s, 171° | - | - |
* Rain latest hour (hover to see other rain measurements)
** Current wind speed in m/s (hover to see current wind gust speed)